createdAt,value
2022-11-05T00:00:33.580Z,97166.81
2022-11-05T00:03:19.141Z,97177.84
2022-11-05T00:06:06.731Z,97183.41
2022-11-05T00:08:52.737Z,97187.53
2022-11-05T00:11:39.258Z,97191.59
2022-11-05T00:14:24.551Z,97207.53
2022-11-05T00:16:51.201Z,97202.59
2022-11-05T00:19:17.963Z,97215.75
2022-11-05T00:22:03.169Z,97209.50
2022-11-05T00:24:48.457Z,97199.03
2022-11-05T00:27:15.256Z,97214.97
2022-11-05T00:29:42.090Z,97219.09
2022-11-05T00:32:08.671Z,97225.31
2022-11-05T00:34:35.300Z,97218.41
2022-11-05T00:37:01.890Z,97218.31
2022-11-05T00:39:28.742Z,97228.06
2022-11-05T00:42:13.941Z,97225.22
2022-11-05T00:44:59.393Z,97221.03
2022-11-05T00:47:44.665Z,97222.34
2022-11-05T00:50:11.728Z,97229.25
2022-11-05T00:52:56.994Z,97232.69
2022-11-05T00:55:38.636Z,97245.19
2022-11-05T00:58:10.563Z,97236.16
2022-11-05T01:00:41.146Z,97236.78
2022-11-05T01:03:10.404Z,97233.94
2022-11-05T01:05:45.227Z,97229.09
2022-11-05T01:08:13.695Z,97223.56
2022-11-05T01:10:41.881Z,97216.59
2022-11-05T01:13:12.895Z,97219.97
2022-11-05T01:15:40.279Z,97221.34
2022-11-05T01:18:07.444Z,97227.59
2022-11-05T01:20:34.107Z,97219.91
2022-11-05T01:23:01.028Z,97221.28
2022-11-05T01:25:28.036Z,97224.75
2022-11-05T01:27:54.715Z,97233.06
2022-11-05T01:30:21.863Z,97240.59
2022-11-05T01:32:48.454Z,97246.84
2022-11-05T01:35:17.378Z,97251.00
2022-11-05T01:37:44.719Z,97254.47
2022-11-05T01:40:19.851Z,97259.22
2022-11-05T01:42:46.930Z,97252.25
2022-11-05T01:45:27.651Z,97255.72
2022-11-05T01:48:05.324Z,97257.81
2022-11-05T01:50:41.251Z,97261.94
2022-11-05T01:53:34.448Z,97261.84
2022-11-05T01:56:12.492Z,97264.59
2022-11-05T01:58:51.695Z,97275.69
2022-11-05T02:01:19.446Z,97272.88
2022-11-05T02:03:49.599Z,97274.91
2022-11-05T02:06:17.691Z,97278.31
2022-11-05T02:09:06.508Z,97279.75
2022-11-05T02:11:33.591Z,97280.38
2022-11-05T02:14:00.703Z,97278.22
2022-11-05T02:17:08.873Z,97279.69
2022-11-05T02:20:12.324Z,97276.81
2022-11-05T02:23:07.810Z,97279.59
2022-11-05T02:26:17.502Z,97304.47
2022-11-05T02:29:54.668Z,97285.69
2022-11-05T02:32:55.617Z,97304.38
2022-11-05T02:35:40.169Z,97305.72
2022-11-05T02:38:10.043Z,97302.25
2022-11-05T02:40:50.765Z,97290.41
2022-11-05T02:43:37.672Z,97289.00
2022-11-05T02:55:49.608Z,97284.72
2022-11-05T02:58:17.244Z,97281.22
2022-11-05T03:06:51.817Z,97288.84
2022-11-05T03:10:11.678Z,97299.84
2022-11-05T03:13:15.263Z,97303.31
2022-11-05T03:15:58.470Z,97305.28
2022-11-05T03:18:46.160Z,97297.69
2022-11-05T03:21:21.801Z,97312.91
2022-11-05T03:24:10.889Z,97314.25
2022-11-05T03:26:57.240Z,97320.50
2022-11-05T03:29:33.111Z,97307.97
2022-11-05T03:32:03.177Z,97307.25
2022-11-05T03:34:38.772Z,97310.66
2022-11-05T03:37:08.076Z,97320.41
2022-11-05T03:39:43.204Z,97316.22
2022-11-05T03:42:13.370Z,97301.66
2022-11-05T03:44:46.116Z,97307.81
2022-11-05T03:47:17.173Z,97320.97
2022-11-05T03:50:17.751Z,97332.75
2022-11-05T03:53:00.847Z,97339.66
2022-11-05T03:55:33.960Z,97344.50
2022-11-05T03:58:04.052Z,97352.09
2022-11-05T04:00:30.924Z,97343.78
2022-11-05T04:02:57.776Z,97349.22
2022-11-05T04:05:24.523Z,97340.91
2022-11-05T04:08:14.060Z,97341.63
2022-11-05T04:11:07.672Z,97351.28
2022-11-05T04:13:34.500Z,97339.50
2022-11-05T04:16:19.813Z,97350.56
2022-11-05T04:18:47.211Z,97347.00
2022-11-05T04:21:32.447Z,97329.66
2022-11-05T04:24:08.262Z,97325.47
2022-11-05T04:26:43.803Z,97324.00
2022-11-05T04:29:29.068Z,97321.97
2022-11-05T04:31:55.940Z,97326.06
2022-11-05T04:34:23.136Z,97329.56
2022-11-05T04:36:50.941Z,97339.22
2022-11-05T04:39:18.942Z,97342.72
2022-11-05T04:41:48.156Z,97357.19
2022-11-05T04:44:15.992Z,97351.66
2022-11-05T04:46:42.884Z,97347.47
2022-11-05T04:49:09.530Z,97343.97
2022-11-05T04:51:36.112Z,97351.72
2022-11-05T04:54:02.739Z,97359.59
2022-11-05T04:56:29.341Z,97357.09
2022-11-05T04:58:55.951Z,97357.34
2022-11-05T05:01:25.151Z,97357.63
2022-11-05T05:03:53.284Z,97369.69
2022-11-05T05:06:20.811Z,97369.84
2022-11-05T05:08:48.669Z,97378.97
2022-11-05T05:11:20.004Z,97402.75
2022-11-05T05:13:47.143Z,97406.41
2022-11-05T05:16:22.452Z,97401.03
2022-11-05T05:18:50.601Z,97399.16
2022-11-05T05:21:37.391Z,97386.84
2022-11-05T05:24:06.584Z,97403.03
2022-11-05T05:26:33.178Z,97399.00
2022-11-05T05:28:59.755Z,97397.81
2022-11-05T05:31:26.570Z,97410.50
2022-11-05T05:33:54.467Z,97414.88
2022-11-05T05:36:22.083Z,97421.41
2022-11-05T05:38:49.091Z,97427.09
2022-11-05T05:41:16.044Z,97427.97
2022-11-05T05:43:42.667Z,97419.19
2022-11-05T05:46:12.005Z,97423.66
2022-11-05T05:48:38.949Z,97415.38
2022-11-05T05:51:08.645Z,97423.81
2022-11-05T05:53:36.522Z,97428.25
2022-11-05T05:56:04.755Z,97434.72
2022-11-05T05:58:35.238Z,97440.53
2022-11-05T06:01:15.713Z,97446.94
2022-11-05T06:03:45.177Z,97447.19
2022-11-05T06:06:13.479Z,97446.72
2022-11-05T06:08:40.767Z,97456.72
2022-11-05T06:11:08.557Z,97456.22
2022-11-05T06:13:36.404Z,97458.50
2022-11-05T06:16:08.295Z,97458.56
2022-11-05T06:18:35.975Z,97458.72
2022-11-05T06:21:08.033Z,97468.56
2022-11-05T06:23:38.156Z,97466.44
2022-11-05T06:26:07.665Z,97470.63
2022-11-05T06:28:34.490Z,97461.59
2022-11-05T06:31:01.846Z,97465.78
2022-11-05T06:33:28.487Z,97463.00
2022-11-05T06:35:58.877Z,97468.50
2022-11-05T06:38:25.615Z,97474.06
2022-11-05T06:40:52.248Z,97477.56
2022-11-05T06:43:19.053Z,97485.19
2022-11-05T06:45:45.662Z,97481.69
2022-11-05T06:48:12.416Z,97491.38
2022-11-05T06:50:39.054Z,97485.81
2022-11-05T06:53:06.082Z,97492.81
2022-11-05T06:55:32.854Z,97494.16
2022-11-05T06:57:59.463Z,97494.16
2022-11-05T07:00:26.397Z,97494.84
2022-11-05T07:02:52.996Z,97504.66
2022-11-05T07:05:19.594Z,97512.34
2022-11-05T07:07:46.392Z,97518.00
2022-11-05T07:10:18.784Z,97529.16
2022-11-05T07:12:45.382Z,97529.25
2022-11-05T07:15:12.643Z,97541.16
2022-11-05T07:17:40.305Z,97540.63
2022-11-05T07:20:08.339Z,97544.91
2022-11-05T07:22:35.852Z,97543.56
2022-11-05T07:25:02.688Z,97538.78
2022-11-05T07:27:29.349Z,97545.78
2022-11-05T07:29:55.965Z,97545.16
2022-11-05T07:32:22.702Z,97545.84
2022-11-05T07:34:49.366Z,97552.13
2022-11-05T07:37:16.818Z,97557.69
2022-11-05T07:39:43.505Z,97560.47
2022-11-05T07:42:16.068Z,97559.75
2022-11-05T07:44:46.661Z,97555.56
2022-11-05T07:47:13.526Z,97562.47
2022-11-05T07:49:45.699Z,97572.16
2022-11-05T07:52:12.107Z,97573.44
2022-11-05T07:54:39.847Z,97579.72
2022-11-05T07:57:06.441Z,97583.22
2022-11-05T07:59:33.042Z,97586.00
2022-11-05T08:02:00.095Z,97582.56
2022-11-05T08:04:26.871Z,97592.56
2022-11-05T08:06:53.457Z,97598.59
2022-11-05T08:09:20.071Z,97600.94
2022-11-05T18:29:47.056Z,97912.25
2022-11-05T18:32:34.036Z,97920.19
2022-11-05T18:35:21.011Z,97921.19
2022-11-05T18:38:07.925Z,97933.31
2022-11-05T18:40:55.058Z,97933.94
2022-11-05T18:43:42.073Z,97945.72
2022-11-05T18:46:56.411Z,97944.81
2022-11-05T18:49:37.995Z,97946.97
2022-11-05T18:52:26.602Z,97939.47
2022-11-05T18:55:13.509Z,97941.78
2022-11-05T18:58:00.505Z,97956.09
2022-11-05T19:00:47.413Z,97954.00
2022-11-05T19:03:34.548Z,97960.28
2022-11-05T19:06:21.799Z,97962.53
2022-11-05T19:09:11.949Z,97966.31
2022-11-05T19:11:58.867Z,97967.97
2022-11-05T19:14:46.092Z,97968.41
2022-11-05T19:17:33.499Z,97961.13
2022-11-05T19:20:20.424Z,97967.81
2022-11-05T19:23:07.395Z,97969.00
2022-11-05T19:25:54.670Z,97971.63
2022-11-05T19:28:42.483Z,97974.97
2022-11-05T19:31:32.095Z,97976.88
2022-11-05T19:34:19.243Z,97974.69
2022-11-05T19:37:08.150Z,97981.50
2022-11-05T19:39:55.056Z,97975.28
2022-11-05T19:42:42.024Z,97983.38
2022-11-05T19:45:45.487Z,97978.47
2022-11-05T19:48:32.876Z,97986.03
2022-11-05T19:51:23.109Z,97979.78
2022-11-05T19:54:10.025Z,97981.84
2022-11-05T19:56:57.313Z,97989.34
2022-11-05T19:59:44.292Z,97989.34
2022-11-05T20:02:31.368Z,97985.16
2022-11-05T20:05:18.442Z,97987.91
2022-11-05T20:08:05.672Z,97984.44
2022-11-05T20:10:56.091Z,97996.19
2022-11-05T20:13:43.031Z,97994.03
2022-11-05T20:16:38.116Z,97996.06
2022-11-05T20:19:25.026Z,98000.09
2022-11-05T20:22:12.239Z,98000.09
2022-11-05T20:24:59.159Z,98005.59
2022-11-05T20:27:46.155Z,98007.66
2022-11-05T20:30:33.058Z,98000.09
2022-11-05T20:33:20.433Z,98002.13
2022-11-05T20:36:10.141Z,98004.16
2022-11-05T20:38:58.317Z,98000.09
2022-11-05T20:41:45.224Z,98006.19
2022-11-05T20:44:32.380Z,98015.91
2022-11-05T20:47:19.309Z,98013.75
2022-11-05T20:50:07.699Z,98013.75
2022-11-05T20:52:54.628Z,98015.19
2022-11-05T20:55:46.664Z,98012.44
2022-11-05T20:58:33.646Z,98019.97
2022-11-05T21:01:20.809Z,98011.72
2022-11-05T21:04:07.864Z,98022.72
2022-11-05T21:06:54.933Z,98010.28
2022-11-05T21:09:41.846Z,98012.31
2022-11-05T21:12:28.854Z,98021.28
2022-11-05T21:15:24.657Z,98015.06
2022-11-05T21:18:12.546Z,98012.31
2022-11-05T21:21:02.681Z,98012.31
2022-11-05T21:23:51.651Z,98015.06
2022-11-05T21:26:38.997Z,98022.59
2022-11-05T21:29:26.386Z,98017.81
2022-11-05T21:32:13.384Z,98021.28
2022-11-05T21:35:00.367Z,98011.56
2022-11-05T21:37:47.300Z,98018.53
2022-11-05T21:40:34.616Z,98015.78
2022-11-05T21:43:21.536Z,98017.94
2022-11-05T21:46:10.736Z,98015.78
2022-11-05T21:48:57.651Z,98012.44
2022-11-05T21:52:03.384Z,98002.13
2022-11-05T21:55:09.047Z,98013.16
2022-11-05T21:58:14.685Z,98011.72
2022-11-05T22:01:02.371Z,98006.94
2022-11-05T22:03:49.327Z,98013.16
2022-11-05T22:06:36.234Z,98012.44
2022-11-05T22:09:23.933Z,98007.53
2022-11-05T22:12:10.915Z,98015.19
2022-11-05T22:14:57.941Z,98011.72
2022-11-05T22:17:47.151Z,98016.63
2022-11-05T22:20:38.907Z,98018.09
2022-11-05T22:23:25.850Z,98021.56
2022-11-05T22:26:12.896Z,98009.09
2022-11-05T22:28:59.826Z,98011.88
2022-11-05T22:31:46.743Z,98010.41
2022-11-05T22:34:34.160Z,98020.69
2022-11-05T22:37:21.119Z,98011.00
2022-11-05T22:40:08.715Z,98016.50
2022-11-05T22:42:55.682Z,98019.81
2022-11-05T22:45:43.812Z,98017.81
2022-11-05T22:48:30.976Z,98012.88
2022-11-05T22:51:21.084Z,98011.44
2022-11-05T22:54:08.248Z,98005.06
2022-11-05T22:56:55.174Z,98008.53
2022-11-05T22:59:42.303Z,98014.03
2022-11-05T23:02:29.526Z,98012.59
2022-11-05T23:05:16.708Z,98009.84
2022-11-05T23:08:22.227Z,98014.63
2022-11-05T23:11:35.992Z,98016.66
2022-11-05T23:14:23.428Z,98016.66
2022-11-05T23:17:29.243Z,98022.19
2022-11-05T23:20:41.812Z,98018.72
2022-11-05T23:23:47.402Z,98015.22
2022-11-05T23:26:51.530Z,98013.75
2022-11-05T23:29:38.558Z,98018.56
2022-11-05T23:32:25.954Z,98019.28
2022-11-05T23:35:13.759Z,98014.34
2022-11-05T23:38:19.309Z,98009.56
2022-11-05T23:41:24.727Z,98016.41
2022-11-05T23:44:30.068Z,98014.94
2022-11-05T23:47:35.727Z,98019.00
2022-11-05T23:50:23.050Z,98013.63
2022-11-05T23:53:10.111Z,98011.44
2022-11-05T23:56:12.328Z,98013.50
2022-11-05T23:58:59.462Z,98006.53
